Time;durP1;ratioP1;P1;durP2;ratioP2;P2;SDS_P1;SDS_P2;PMS_P1;PMS_P2;Temp;Humidity;BMP_temperature;BMP_pressure;BME280_temperature;BME280_humidity;BME280_pressure;Samples;Min_cycle;Max_cycle;Signal;HPM_P1;HPM_P2
2022/08/19 00:02:08;;;;;;;14.85;12.93;;;;;;;18.18;81.28;101227.16;5154918;27;20067;-74
2022/08/19 00:04:36;;;;;;;13.70;12.30;;;;;;;18.15;81.73;101230.84;5155108;27;20043;-74
2022/08/19 00:07:06;;;;;;;15.40;13.75;;;;;;;18.11;81.50;101225.78;5157977;27;20047;-74
2022/08/19 00:09:33;;;;;;;16.70;13.75;;;;;;;18.08;81.57;101215.28;5158777;27;20039;-74
2022/08/19 00:12:01;;;;;;;16.92;14.43;;;;;;;18.04;81.51;101219.06;5158518;27;20071;-74
2022/08/19 00:14:32;;;;;;;17.95;15.90;;;;;;;18.00;81.79;101218.41;5158586;27;20549;-74
2022/08/19 00:17:00;;;;;;;16.25;14.55;;;;;;;17.97;81.87;101223.88;5157790;27;20554;-74
2022/08/19 00:19:27;;;;;;;18.05;15.52;;;;;;;17.93;81.81;101219.63;5158588;27;20043;-74
2022/08/19 00:21:56;;;;;;;17.08;15.30;;;;;;;17.89;82.02;101212.75;5158664;27;20551;-74
2022/08/19 00:24:23;;;;;;;16.65;14.70;;;;;;;17.86;82.01;101208.44;5158669;27;20563;-74
2022/08/19 00:26:52;;;;;;;16.75;14.65;;;;;;;17.81;82.09;101211.34;5158501;27;20046;-74
2022/08/19 00:29:24;;;;;;;16.15;14.55;;;;;;;17.78;82.08;101208.00;5158377;27;20063;-74
2022/08/19 00:31:57;;;;;;;16.25;14.40;;;;;;;17.75;82.20;101209.03;5158394;27;20119;-74
2022/08/19 00:34:28;;;;;;;18.83;15.35;;;;;;;17.73;82.35;101210.91;5158402;27;20540;-74
2022/08/19 00:36:57;;;;;;;16.40;14.68;;;;;;;17.69;82.82;101212.91;5157839;27;20088;-74
2022/08/19 00:39:24;;;;;;;17.13;15.35;;;;;;;17.69;82.61;101214.72;5158246;27;20043;-74
2022/08/19 00:41:51;;;;;;;18.17;15.32;;;;;;;17.68;82.55;101223.66;5158498;27;20254;-74
2022/08/19 00:44:25;;;;;;;17.65;15.40;;;;;;;17.66;82.33;101226.38;5157423;27;20044;-74
2022/08/19 00:46:58;;;;;;;16.77;14.38;;;;;;;17.64;82.35;101220.28;5158317;27;20496;-74
2022/08/19 00:49:42;;;;;;;16.15;13.90;;;;;;;17.63;82.34;101223.03;5157915;27;20051;-74
2022/08/19 00:52:19;;;;;;;16.27;14.55;;;;;;;17.62;82.15;101221.31;5158204;27;20275;-74
2022/08/19 00:54:48;;;;;;;16.45;14.77;;;;;;;17.60;82.53;101210.72;5158234;27;20495;-74
2022/08/19 00:57:29;;;;;;;16.02;14.35;;;;;;;17.57;82.43;101218.88;5157406;27;20043;-74
2022/08/19 00:59:59;;;;;;;16.90;15.10;;;;;;;17.55;82.52;101215.44;5158065;27;20558;-74
2022/08/19 01:02:32;;;;;;;17.42;15.55;;;;;;;17.51;82.36;101228.06;5158108;27;20039;-74
2022/08/19 01:05:03;;;;;;;17.23;15.43;;;;;;;17.49;82.66;101218.44;5157914;27;20074;-74
2022/08/19 01:07:31;;;;;;;19.67;16.77;;;;;;;17.46;82.62;101227.47;5157858;27;20136;-74
2022/08/19 01:10:10;;;;;;;18.90;16.90;;;;;;;17.44;82.52;101226.69;5157355;27;20479;-74
2022/08/19 01:12:39;;;;;;;19.83;16.80;;;;;;;17.43;82.40;101224.97;5157904;27;20035;-74
2022/08/19 01:15:11;;;;;;;20.25;18.15;;;;;;;17.41;82.81;101224.16;5157493;27;20046;-74
2022/08/19 01:17:40;;;;;;;20.42;18.20;;;;;;;17.39;82.89;101220.75;5157027;27;20089;-74
2022/08/19 01:20:15;;;;;;;20.63;18.30;;;;;;;17.38;82.78;101224.34;5157396;27;20039;-74
2022/08/19 01:22:54;;;;;;;20.85;17.85;;;;;;;17.36;83.14;101221.75;5157071;27;20079;-74
2022/08/19 01:25:29;;;;;;;19.33;17.23;;;;;;;17.36;83.03;101220.91;5157510;27;20067;-74
2022/08/19 01:27:57;;;;;;;18.80;16.80;;;;;;;17.35;83.22;101225.34;5157910;27;20036;-74
2022/08/19 01:30:37;;;;;;;20.38;18.30;;;;;;;17.33;83.18;101221.94;5157626;27;20560;-74
2022/08/19 01:33:05;;;;;;;20.90;18.70;;;;;;;17.33;83.13;101221.94;5157232;27;20092;-74
2022/08/19 01:35:35;;;;;;;18.85;16.23;;;;;;;17.32;83.14;101228.19;5156665;27;20508;-74
2022/08/19 01:38:07;;;;;;;20.30;17.00;;;;;;;17.30;83.14;101226.53;5157420;27;20529;-74
2022/08/19 01:40:39;;;;;;;21.42;17.30;;;;;;;17.27;83.19;101230.22;5157140;27;20071;-74
2022/08/19 01:43:07;;;;;;;18.25;16.20;;;;;;;17.26;83.57;101228.50;5156823;27;20035;-74
2022/08/19 01:45:36;;;;;;;20.73;18.30;;;;;;;17.27;83.29;101238.22;5156979;27;20039;-74
2022/08/19 01:48:03;;;;;;;21.90;19.50;;;;;;;17.30;83.45;101232.75;5157222;27;20096;-74
2022/08/19 01:50:34;;;;;;;20.88;18.58;;;;;;;17.34;83.32;101231.66;5157439;27;20493;-74
2022/08/19 01:53:07;;;;;;;21.58;18.60;;;;;;;17.38;83.85;101221.69;5156673;27;20263;-74
2022/08/19 01:55:40;;;;;;;25.20;18.92;;;;;;;17.42;83.76;101227.72;5157018;27;20073;-74
2022/08/19 01:58:22;;;;;;;21.67;18.48;;;;;;;17.48;84.00;101224.72;5157037;27;20051;-74
2022/08/19 02:00:50;;;;;;;21.48;17.45;;;;;;;17.56;84.12;101234.97;5157278;27;20621;-74
2022/08/19 02:03:17;;;;;;;20.02;17.58;;;;;;;17.60;84.18;101241.88;5157090;27;20092;-74
2022/08/19 02:05:45;;;;;;;20.40;17.83;;;;;;;17.62;84.40;101237.28;5156719;27;20047;-74
2022/08/19 02:08:12;;;;;;;19.67;17.65;;;;;;;17.64;84.29;101244.28;5156503;27;20045;-74
2022/08/19 02:10:43;;;;;;;22.48;18.50;;;;;;;17.65;84.58;101247.81;5157137;27;20063;-74
2022/08/19 02:13:13;;;;;;;20.45;18.30;;;;;;;17.70;84.57;101257.28;5156858;27;20040;-74
2022/08/19 02:15:40;;;;;;;19.85;17.10;;;;;;;17.73;84.52;101256.25;5156580;27;20039;-74
2022/08/19 02:18:08;;;;;;;21.50;19.25;;;;;;;17.74;84.27;101259.78;5156295;27;20544;-74
2022/08/19 02:20:38;;;;;;;20.38;17.15;;;;;;;17.73;84.10;101256.25;5156410;27;20039;-74
2022/08/19 02:23:07;;;;;;;21.00;17.83;;;;;;;17.74;84.21;101249.13;5156213;27;20035;-74
2022/08/19 02:25:45;;;;;;;18.83;16.83;;;;;;;17.73;84.07;101242.91;5156606;27;20039;-74
2022/08/19 02:28:12;;;;;;;19.85;17.80;;;;;;;17.69;83.91;101239.56;5156059;27;20075;-74
2022/08/19 02:30:46;;;;;;;20.00;17.92;;;;;;;17.65;83.93;101234.47;5138823;27;20119;-74
2022/08/19 02:33:14;;;;;;;19.33;17.27;;;;;;;17.61;83.67;101236.44;5156679;27;20117;-74
2022/08/19 02:35:46;;;;;;;19.58;17.30;;;;;;;17.58;83.63;101239.28;5156391;27;20500;-74
2022/08/19 02:38:26;;;;;;;19.70;17.67;;;;;;;17.52;83.63;101237.78;5155661;27;20051;-74
2022/08/19 02:41:00;;;;;;;21.63;18.30;;;;;;;17.52;83.95;101243.13;5155907;27;20055;-74
2022/08/19 02:43:30;;;;;;;;;;;;;;;17.49;83.74;101245.09;5156560;27;20558;-74
2022/08/19 02:46:02;;;;;;;20.27;18.15;;;;;;;17.46;83.87;101247.91;5156288;27;20013;-74
2022/08/19 02:48:30;;;;;;;20.38;18.17;;;;;;;17.45;84.12;101251.53;5156260;27;20501;-74
2022/08/19 02:50:57;;;;;;;23.65;20.33;;;;;;;17.43;84.27;101248.09;5155964;27;20789;-74
2022/08/19 02:53:27;;;;;;;21.13;18.80;;;;;;;17.42;84.35;101249.03;5155977;27;20080;-74
2022/08/19 02:55:55;;;;;;;22.17;19.08;;;;;;;17.39;84.40;101250.06;5156244;27;20417;-74
2022/08/19 02:58:23;;;;;;;22.88;20.42;;;;;;;17.37;84.61;101247.47;5155744;27;20069;-74
2022/08/19 03:00:55;;;;;;;29.67;26.45;;;;;;;17.41;85.13;101249.97;5156085;27;20045;-74
2022/08/19 03:03:23;;;;;;;32.72;26.02;;;;;;;17.42;85.50;101246.38;5155876;27;20035;-74
2022/08/19 03:05:51;;;;;;;34.97;28.88;;;;;;;17.45;86.20;101243.56;5155783;27;20093;-74
2022/08/19 03:08:25;;;;;;;34.70;27.25;;;;;;;17.46;86.64;101240.78;5155956;27;20569;-74
2022/08/19 03:10:53;;;;;;;33.15;26.90;;;;;;;17.46;87.25;101235.47;5155952;27;20039;-74
2022/08/19 03:13:20;;;;;;;35.92;28.95;;;;;;;17.45;87.15;101244.41;5155530;27;20035;-74
2022/08/19 03:15:48;;;;;;;40.65;29.20;;;;;;;17.40;86.89;101238.44;5155606;27;20063;-74
2022/08/19 03:18:16;;;;;;;34.97;28.20;;;;;;;17.35;86.98;101243.16;5155066;27;20555;-74
2022/08/19 03:20:48;;;;;;;39.08;28.40;;;;;;;17.29;87.30;101244.34;5155679;27;20050;-74
2022/08/19 03:23:16;;;;;;;36.78;30.85;;;;;;;17.22;87.34;101253.59;5155114;27;20043;-74
2022/08/19 03:25:50;;;;;;;38.65;30.30;;;;;;;17.15;87.09;101253.06;5155698;27;20067;-74
2022/08/19 03:28:37;;;;;;;33.60;28.83;;;;;;;17.16;87.38;101257.44;5155252;27;20039;-75
2022/08/19 03:31:12;;;;;;;37.38;29.45;;;;;;;17.13;87.62;101252.25;5155502;27;20091;-74
2022/08/19 03:33:59;;;;;;;35.80;28.50;;;;;;;17.07;87.71;101257.91;5155687;27;20456;-74
2022/08/19 03:36:27;;;;;;;43.15;31.10;;;;;;;17.02;87.75;101252.81;5155498;27;20044;-73
2022/08/19 03:39:00;;;;;;;41.80;32.13;;;;;;;17.02;88.49;101263.47;5155405;27;20530;-74
2022/08/19 03:41:35;;;;;;;39.58;30.05;;;;;;;16.97;88.49;101260.16;5157353;27;20052;-74
2022/08/19 03:44:21;;;;;;;42.65;31.23;;;;;;;16.91;88.94;101263.97;5158727;27;20496;-74
2022/08/19 03:46:55;;;;;;;34.03;26.90;;;;;;;16.89;88.52;101255.19;5159096;27;20066;-74
2022/08/19 03:49:26;;;;;;;41.83;31.58;;;;;;;16.87;88.53;101253.56;5159384;27;20084;-74
2022/08/19 03:51:59;;;;;;;42.60;31.73;;;;;;;16.86;88.33;101263.34;5140594;27;20483;-74
2022/08/19 03:54:27;;;;;;;42.72;31.73;;;;;;;16.88;88.40;101260.59;5158664;27;20050;-74
2022/08/19 03:56:57;;;;;;;39.88;28.00;;;;;;;16.87;88.39;101251.78;5158934;27;20035;-74
2022/08/19 03:59:32;;;;;;;42.30;32.22;;;;;;;16.86;88.42;101251.81;5159009;27;20500;-74
2022/08/19 04:02:08;;;;;;;46.50;32.28;;;;;;;16.83;88.21;101252.00;5158971;27;20039;-74
2022/08/19 04:04:39;;;;;;;38.13;31.38;;;;;;;16.83;88.47;101257.31;5158601;27;20100;-74
2022/08/19 04:07:09;;;;;;;41.67;31.95;;;;;;;16.80;88.48;101247.66;5158726;27;20085;-74
2022/08/19 04:09:37;;;;;;;42.47;32.33;;;;;;;16.80;88.34;101250.34;5158821;27;20526;-74
2022/08/19 04:12:06;;;;;;;38.40;29.38;;;;;;;16.81;88.48;101252.06;5158651;27;20181;-74
2022/08/19 04:14:34;;;;;;;41.95;32.30;;;;;;;16.77;88.55;101253.16;5158782;27;20088;-74
2022/08/19 04:17:04;;;;;;;45.55;31.52;;;;;;;16.76;88.70;101246.97;5158506;27;20112;-74
2022/08/19 04:19:35;;;;;;;42.38;30.63;;;;;;;16.75;88.69;101252.38;5158250;27;20054;-74
2022/08/19 04:22:04;;;;;;;42.38;32.38;;;;;;;16.71;88.77;101246.34;5158510;27;20036;-74
2022/08/19 04:24:32;;;;;;;44.42;31.60;;;;;;;16.69;88.75;101237.56;5158687;27;20053;-75
2022/08/19 04:27:02;;;;;;;46.08;33.15;;;;;;;16.69;88.69;101234.03;5158699;27;20047;-74
2022/08/19 04:29:30;;;;;;;44.97;32.10;;;;;;;16.69;88.84;101237.56;5158006;27;20035;-74
2022/08/19 04:31:59;;;;;;;48.85;30.60;;;;;;;16.68;89.40;101235.00;5158277;27;20484;-74
2022/08/19 04:34:37;;;;;;;53.70;33.03;;;;;;;16.66;89.49;101231.53;5158374;27;20546;-74
2022/08/19 04:37:26;;;;;;;55.65;35.92;;;;;;;16.63;89.84;101229.91;5158007;27;20035;-74
2022/08/19 04:42:47;;;;;;;51.22;34.63;;;;;;;16.61;89.63;101231.78;5157772;27;20070;-74
2022/08/19 04:45:15;;;;;;;49.40;35.35;;;;;;;16.63;89.61;101229.03;5158212;27;20070;-75
2022/08/19 04:47:44;;;;;;;48.72;33.85;;;;;;;16.65;89.30;101237.81;5158275;27;20508;-74
2022/08/19 04:50:27;;;;;;;49.03;33.13;;;;;;;16.67;89.12;101243.91;5158237;27;20136;-74
2022/08/19 04:52:55;;;;;;;43.15;31.38;;;;;;;16.69;89.03;101250.88;5157610;27;20096;-74
2022/08/19 04:55:25;;;;;;;54.72;35.35;;;;;;;16.73;89.13;101252.47;5157882;27;20088;-74
2022/08/19 04:57:53;;;;;;;54.65;35.95;;;;;;;16.80;89.17;101254.81;5157580;27;20094;-74
2022/08/19 05:00:21;;;;;;;63.38;38.17;;;;;;;16.84;89.17;101248.41;5157971;27;20512;-74
2022/08/19 05:02:49;;;;;;;50.83;33.47;;;;;;;16.88;89.20;101247.28;5158282;27;20043;-74
2022/08/19 05:05:17;;;;;;;55.38;35.65;;;;;;;16.95;88.95;101255.88;5157578;27;20619;-74
2022/08/19 05:07:44;;;;;;;56.70;36.30;;;;;;;17.00;88.89;101246.72;5157624;27;20116;-73
2022/08/19 05:10:12;;;;;;;64.43;36.70;;;;;;;17.08;88.91;101257.81;5158278;27;20070;-74
2022/08/19 05:12:39;;;;;;;53.33;33.22;;;;;;;17.17;88.78;101259.16;5157860;27;20555;-74
2022/08/19 05:15:08;;;;;;;51.47;33.72;;;;;;;17.22;88.49;101256.28;5157628;27;20070;-74
2022/08/19 05:17:36;;;;;;;53.55;32.80;;;;;;;17.29;88.20;101260.31;5157188;27;20129;-74
2022/08/19 05:22:53;;;;;;;49.28;34.08;;;;;;;17.31;88.06;101266.44;5157660;27;20039;-74
2022/08/19 05:25:21;;;;;;;50.47;33.67;;;;;;;17.34;88.21;101274.28;5157413;27;20055;-74
2022/08/19 05:27:49;;;;;;;47.22;31.42;;;;;;;17.43;87.74;101267.59;5157584;27;20092;-74
2022/08/19 05:30:17;;;;;;;50.28;32.28;;;;;;;17.59;87.43;101267.66;5156776;27;20070;-74
2022/08/19 05:32:44;;;;;;;49.05;30.85;;;;;;;17.96;86.34;101271.03;5157570;27;20041;-74
2022/08/19 05:35:12;;;;;;;45.60;30.73;;;;;;;18.47;84.88;101268.22;5157420;27;20571;-74
2022/08/19 05:37:40;;;;;;;39.40;29.88;;;;;;;19.37;82.27;101273.69;5157188;27;20039;-74
2022/08/19 05:40:09;;;;;;;41.50;28.88;;;;;;;20.07;79.59;101256.06;5156688;27;20043;-74
2022/08/19 05:42:37;;;;;;;36.95;27.23;;;;;;;20.68;75.95;101258.38;5157389;27;20043;-74
2022/08/19 05:45:05;;;;;;;36.08;26.70;;;;;;;21.18;73.40;101265.81;5156922;27;20504;-74
2022/08/19 05:47:33;;;;;;;41.30;26.42;;;;;;;21.12;73.30;101253.66;5157181;27;20139;-74
2022/08/19 05:50:01;;;;;;;38.65;27.90;;;;;;;20.43;74.95;101259.13;5156980;27;20116;-74
2022/08/19 05:52:31;;;;;;;38.50;29.10;;;;;;;19.88;76.67;101261.72;5157282;27;20111;-74
2022/08/19 05:54:59;;;;;;;36.92;26.17;;;;;;;19.55;78.01;101258.34;5157464;27;20043;-74
2022/08/19 05:57:28;;;;;;;34.45;26.70;;;;;;;19.30;78.92;101260.78;5156431;27;20055;-74
2022/08/19 05:59:57;;;;;;;33.33;25.40;;;;;;;19.14;79.69;101263.53;5157165;27;20118;-74
2022/08/19 06:02:27;;;;;;;41.40;28.15;;;;;;;19.03;80.15;101265.03;5156985;27;20496;-74
2022/08/19 06:04:55;;;;;;;38.97;27.95;;;;;;;18.99;80.85;101262.63;5155375;27;20066;-74
2022/08/19 06:07:22;;;;;;;40.05;29.00;;;;;;;18.97;81.10;101268.06;5156888;27;20035;-74
2022/08/19 06:09:49;;;;;;;49.53;29.77;;;;;;;18.94;81.61;101276.25;5156984;27;20177;-74
2022/08/19 06:12:32;;;;;;;39.65;28.33;;;;;;;18.93;82.11;101272.72;5156238;27;20039;-74
2022/08/19 06:15:13;;;;;;;39.33;28.13;;;;;;;18.97;82.35;101280.56;5157020;27;20092;-74
2022/08/19 06:17:44;;;;;;;40.80;28.73;;;;;;;19.00;82.42;101286.59;5156374;27;20051;-74
2022/08/19 06:20:14;;;;;;;38.83;27.58;;;;;;;19.08;82.73;101280.78;5156435;27;20043;-74
2022/08/19 06:22:51;;;;;;;49.65;29.63;;;;;;;19.19;82.71;101290.84;5156617;27;20550;-74
2022/08/19 06:25:18;;;;;;;51.42;32.30;;;;;;;19.23;82.48;101287.91;5156532;27;20043;-74
2022/08/19 06:27:46;;;;;;;53.63;33.92;;;;;;;19.28;82.43;101279.59;5156627;27;20121;-74
2022/08/19 06:30:33;;;;;;;55.28;34.80;;;;;;;19.34;81.76;101283.72;5156419;27;20046;-76
2022/08/19 06:33:00;;;;;;;51.45;32.28;;;;;;;19.37;81.55;101286.22;5155575;27;20563;-75
2022/08/19 06:35:29;;;;;;;58.20;33.50;;;;;;;19.39;81.02;101290.50;5156509;27;20797;-75
2022/08/19 06:37:56;;;;;;;54.83;33.70;;;;;;;19.44;80.24;101292.03;5156751;27;20050;-75
2022/08/19 06:40:23;;;;;;;55.40;34.60;;;;;;;19.49;80.01;101287.28;5156428;27;20092;-75
2022/08/19 06:42:51;;;;;;;55.42;36.30;;;;;;;19.51;80.08;101298.75;5155949;27;20377;-74
2022/08/19 06:45:22;;;;;;;62.30;37.05;;;;;;;19.53;78.97;101302.19;5156437;27;20092;-74
2022/08/19 06:47:54;;;;;;;54.13;34.15;;;;;;;19.51;79.38;101296.06;5156220;27;20043;-72
2022/08/19 06:50:24;;;;;;;59.53;35.47;;;;;;;19.44;79.56;101294.69;5156062;27;20463;-74
2022/08/19 06:52:52;;;;;;;53.50;36.30;;;;;;;19.45;79.88;101291.94;5155701;27;20492;-74
2022/08/19 06:55:20;;;;;;;52.15;34.33;;;;;;;19.51;78.96;101298.75;5156142;27;20082;-74
2022/08/19 06:57:48;;;;;;;60.90;37.42;;;;;;;19.54;79.08;101303.88;5156204;27;20496;-74
2022/08/19 07:00:15;;;;;;;67.20;38.85;;;;;;;19.57;79.13;101303.69;5156290;27;20119;-75
2022/08/19 07:02:43;;;;;;;54.28;35.67;;;;;;;19.70;78.97;101302.00;5156288;27;20492;-75
2022/08/19 07:05:22;;;;;;;54.90;33.95;;;;;;;19.79;78.06;101292.53;5155614;27;20500;-74
2022/08/19 07:07:49;;;;;;;60.42;36.20;;;;;;;19.87;78.10;101297.44;5155939;27;20035;-73
2022/08/19 07:10:18;;;;;;;52.88;33.47;;;;;;;19.98;77.65;101300.31;5155932;27;20456;-74
2022/08/19 07:12:45;;;;;;;53.85;33.33;;;;;;;20.01;77.91;101294.78;5155110;27;20092;-74
2022/08/19 07:15:12;;;;;;;47.88;30.33;;;;;;;20.12;76.79;101287.88;5155632;27;20082;-74
2022/08/19 07:17:40;;;;;;;49.25;32.25;;;;;;;20.16;76.08;101292.06;5155484;27;20047;-74
2022/08/19 07:20:10;;;;;;;45.15;29.83;;;;;;;20.21;75.48;101299.78;5155916;27;20043;-74
2022/08/19 07:22:39;;;;;;;47.17;30.38;;;;;;;20.24;75.42;101305.84;5156213;27;20100;-74
2022/08/19 07:25:09;;;;;;;50.20;33.05;;;;;;;20.28;76.29;101301.16;5155165;27;20039;-74
2022/08/19 07:27:37;;;;;;;47.63;32.45;;;;;;;20.39;76.47;101301.31;5155587;27;20047;-74
2022/08/19 07:30:08;;;;;;;46.85;31.73;;;;;;;20.51;75.75;101302.31;5155851;27;20118;-74
2022/08/19 07:32:39;;;;;;;49.70;33.15;;;;;;;20.63;74.81;101303.34;5155548;27;20031;-74
2022/08/19 07:35:09;;;;;;;46.20;33.13;;;;;;;20.71;75.18;101298.31;5155517;27;20039;-73
2022/08/19 07:37:36;;;;;;;43.90;30.40;;;;;;;20.83;74.97;101301.19;5155078;27;20055;-74
2022/08/19 07:40:07;;;;;;;46.95;30.02;;;;;;;20.93;74.54;101307.66;5155561;27;20124;-74
2022/08/19 07:42:34;;;;;;;43.05;29.45;;;;;;;21.00;73.52;101319.69;5155693;27;20031;-74
2022/08/19 07:45:05;;;;;;;45.20;30.10;;;;;;;21.03;72.84;101311.44;5155642;27;20067;-74
2022/08/19 07:47:33;;;;;;;43.03;29.50;;;;;;;21.08;72.73;101311.13;5155122;27;20032;-74
2022/08/19 07:50:19;;;;;;;46.50;31.90;;;;;;;21.19;73.48;101315.78;5155621;27;20097;-74
2022/08/19 07:52:49;;;;;;;45.38;29.90;;;;;;;21.32;73.26;101313.09;5155027;27;20081;-74
2022/08/19 07:55:25;;;;;;;43.90;30.33;;;;;;;21.41;73.17;101315.16;5155312;27;20039;-75
2022/08/19 07:58:13;;;;;;;43.40;27.65;;;;;;;21.52;73.09;101320.63;5155226;27;20404;-74
2022/08/19 08:00:42;;;;;;;40.90;28.83;;;;;;;21.61;72.26;101327.22;5155341;27;20039;-74
2022/08/19 08:03:11;;;;;;;38.08;26.38;;;;;;;21.72;72.15;101330.00;5154691;27;20104;-74
2022/08/19 08:11:18;;;;;;;48.17;26.88;;;;;;;22.04;70.55;101339.44;5155105;27;20118;-74
2022/08/19 08:13:48;;;;;;;35.60;24.67;;;;;;;;;;5154956;27;20050;-75
2022/08/19 08:16:35;;;;;;;45.83;25.35;;;;;;;;;;5155069;27;20053;-75
2022/08/19 08:19:14;;;;;;;38.72;24.65;;;;;;;22.11;68.14;101342.56;5155227;27;20039;-74
2022/08/19 08:21:55;;;;;;;36.25;25.17;;;;;;;22.13;69.53;101346.00;5154966;27;20050;-74
2022/08/19 08:24:24;;;;;;;33.72;23.52;;;;;;;22.24;67.87;101346.06;5154900;27;20043;-74
2022/08/19 08:26:55;;;;;;;36.17;21.95;;;;;;;22.27;66.83;101347.69;5155983;27;20148;-75
2022/08/19 08:29:28;;;;;;;43.47;23.30;;;;;;;22.25;67.09;101352.31;5158455;27;20036;-74
2022/08/19 08:32:03;;;;;;;37.47;25.15;;;;;;;22.29;68.27;101351.09;5158393;27;20140;-74
2022/08/19 08:34:40;;;;;;;33.33;23.35;;;;;;;22.34;67.51;101352.47;5158262;27;20040;-74
2022/08/19 08:37:07;;;;;;;35.67;23.45;;;;;;;22.41;67.65;101349.41;5158289;27;20039;-74
2022/08/19 08:39:34;;;;;;;31.08;22.40;;;;;;;22.53;67.02;101361.06;5157992;27;20063;-74
2022/08/19 08:42:17;;;;;;;34.95;24.23;;;;;;;22.60;67.20;101362.31;5158252;27;20085;-74
2022/08/19 08:44:57;;;;;;;34.25;23.38;;;;;;;22.71;66.85;101359.72;5158230;27;20676;-74
2022/08/19 08:47:34;;;;;;;35.47;24.67;;;;;;;22.83;66.72;101362.47;5158105;27;20046;-74
2022/08/19 08:50:14;;;;;;;35.03;24.80;;;;;;;22.92;66.79;101361.78;5157901;27;20043;-74
2022/08/19 08:52:50;;;;;;;34.63;22.23;;;;;;;23.01;66.86;101360.25;5158405;27;20063;-74
2022/08/19 08:55:28;;;;;;;34.97;21.13;;;;;;;23.13;66.26;101351.25;5157630;27;20118;-74
2022/08/19 08:58:24;;;;;;;33.47;20.38;;;;;;;23.34;63.96;101356.84;5157735;27;20121;-74
2022/08/19 09:00:51;;;;;;;29.75;20.83;;;;;;;23.40;64.54;101347.47;5158154;27;20546;-74
2022/08/19 09:03:24;;;;;;;28.65;18.33;;;;;;;23.48;63.99;101355.78;5139623;27;20070;-74
2022/08/19 09:06:20;;;;;;;27.20;18.55;;;;;;;23.60;63.49;101347.75;5157275;27;20519;-75
2022/08/19 09:09:04;;;;;;;37.78;17.83;;;;;;;23.66;62.28;101345.44;5157629;27;20484;-74
2022/08/19 09:12:17;;;;;;;23.63;17.05;;;;;;;23.79;61.90;101334.56;5157858;27;20126;-74
2022/08/19 09:15:07;;;;;;;23.67;14.93;;;;;;;23.94;61.59;101342.41;5157812;27;20051;-74
2022/08/19 09:17:38;;;;;;;26.08;14.93;;;;;;;24.11;60.35;101339.25;5157446;27;20051;-75
2022/08/19 09:20:19;;;;;;;30.50;15.75;;;;;;;24.23;59.48;101341.94;5157186;27;20070;-74
2022/08/19 09:22:48;;;;;;;22.88;14.73;;;;;;;24.32;59.36;101338.50;5157661;27;20043;-74
2022/08/19 09:25:23;;;;;;;23.27;13.70;;;;;;;24.32;59.45;101341.19;5157407;27;20051;-74
2022/08/19 09:27:57;;;;;;;27.60;12.50;;;;;;;24.38;57.75;101338.00;5156957;27;20042;-74
2022/08/19 09:30:40;;;;;;;22.13;12.57;;;;;;;24.43;57.15;101337.63;5157406;27;20035;-74
2022/08/19 09:33:08;;;;;;;18.40;12.07;;;;;;;24.48;56.48;101330.88;5138794;27;20042;-74
2022/08/19 09:35:35;;;;;;;19.65;11.88;;;;;;;24.53;55.95;101341.28;5157372;27;20549;-75
2022/08/19 09:38:21;;;;;;;20.92;10.88;;;;;;;24.58;57.02;101339.06;5156805;27;20538;-75
2022/08/19 09:40:49;;;;;;;14.52;9.73;;;;;;;24.63;54.77;101336.00;5157501;27;20035;-74
2022/08/19 09:43:17;;;;;;;18.42;9.20;;;;;;;24.66;55.77;101324.97;5156899;27;20524;-74
2022/08/19 09:46:01;;;;;;;17.35;8.73;;;;;;;24.78;54.04;101328.50;5156991;27;20545;-74
2022/08/19 09:48:28;;;;;;;18.85;10.15;;;;;;;24.87;54.67;101330.44;5157254;27;20144;-74
2022/08/19 09:51:07;;;;;;;14.60;9.93;;;;;;;24.90;53.73;101330.19;5157207;27;20042;-74
2022/08/19 09:53:38;;;;;;;13.63;8.75;;;;;;;25.01;52.60;101340.06;5156772;27;20039;-74
2022/08/19 09:56:06;;;;;;;13.88;9.70;;;;;;;25.10;53.59;101336.59;5156836;27;21495;-74
2022/08/19 09:58:37;;;;;;;13.60;9.95;;;;;;;25.18;53.32;101349.44;5156891;27;20039;-75
2022/08/19 10:01:06;;;;;;;14.07;10.73;;;;;;;25.20;52.08;101342.06;5157000;27;20587;-75
2022/08/19 10:03:36;;;;;;;16.90;12.07;;;;;;;25.19;51.98;101347.56;5157634;27;20093;-74
2022/08/19 10:06:05;;;;;;;17.90;12.50;;;;;;;25.17;52.10;101347.72;5156642;27;20038;-74
2022/08/19 10:08:44;;;;;;;21.17;14.63;;;;;;;25.15;51.97;101348.84;5156921;27;20501;-74
2022/08/19 10:11:17;;;;;;;27.15;17.45;;;;;;;25.03;53.31;101358.84;5156890;27;20122;-74
2022/08/19 10:14:02;;;;;;;19.63;14.57;;;;;;;25.04;53.00;101344.34;5156505;27;20459;-75
2022/08/19 10:16:30;;;;;;;21.25;13.77;;;;;;;25.16;52.58;101343.31;5156478;27;20043;-75
2022/08/19 10:19:05;;;;;;;25.20;16.35;;;;;;;25.38;53.55;101358.53;5156928;27;20062;-74
2022/08/19 10:21:34;;;;;;;25.30;20.20;;;;;;;25.45;53.69;101345.38;5156680;27;20039;-75
2022/08/19 10:24:05;;;;;;;26.65;20.30;;;;;;;25.46;53.55;101355.19;5156801;27;20043;-74
2022/08/19 10:26:37;;;;;;;28.17;21.65;;;;;;;25.23;53.85;101347.19;5156812;27;20073;-74
2022/08/19 10:29:05;;;;;;;34.65;22.23;;;;;;;24.96;54.47;101353.09;5156490;27;20524;-74
2022/08/19 10:31:36;;;;;;;26.67;20.67;;;;;;;24.85;54.87;101351.28;5156277;27;20056;-75
2022/08/19 10:34:23;;;;;;;31.30;21.92;;;;;;;24.89;55.64;101351.88;5156586;27;20126;-74
2022/08/19 10:36:56;;;;;;;30.63;20.90;;;;;;;24.99;55.83;101362.75;5156120;27;20039;-74
2022/08/19 10:39:30;;;;;;;26.35;20.80;;;;;;;24.75;55.00;101375.47;5138725;27;20150;-75
2022/08/19 10:42:10;;;;;;;30.27;21.23;;;;;;;24.71;55.28;101352.41;5156092;27;20043;-74
2022/08/19 10:44:37;;;;;;;32.08;21.80;;;;;;;24.68;55.69;101346.41;5156565;27;20468;-74
2022/08/19 10:47:05;;;;;;;29.20;20.15;;;;;;;24.75;55.38;101363.81;5156154;27;20073;-74
2022/08/19 10:52:42;;;;;;;24.75;19.95;;;;;;;24.64;55.39;101354.72;5156301;27;20064;-74
2022/08/19 10:58:17;;;;;;;32.10;19.70;;;;;;;24.79;55.28;101343.69;5155523;27;20132;-74
2022/08/19 11:00:58;;;;;;;26.77;17.55;;;;;;;24.87;53.74;101343.06;5156127;27;20138;-74
2022/08/19 11:03:30;;;;;;;25.67;17.48;;;;;;;24.70;54.52;101336.38;5156156;27;20066;-73
2022/08/19 11:06:04;;;;;;;22.75;17.02;;;;;;;24.87;54.31;101343.06;5156006;27;20085;-74
2022/08/19 11:08:34;;;;;;;19.63;15.60;;;;;;;25.07;53.37;101341.38;5156114;27;20042;-75
2022/08/19 11:11:03;;;;;;;22.42;16.45;;;;;;;25.34;53.43;101340.00;5155959;27;20131;-73
2022/08/19 11:13:33;;;;;;;22.20;17.10;;;;;;;25.58;52.27;101337.09;5155520;27;20069;-73
2022/08/19 11:16:09;;;;;;;24.20;16.45;;;;;;;25.72;52.07;101347.53;5155664;27;20092;-74
2022/08/19 11:18:42;;;;;;;24.83;17.02;;;;;;;25.80;51.11;101349.59;5155598;27;20145;-74
2022/08/19 11:21:16;;;;;;;23.17;17.35;;;;;;;25.92;51.51;101349.50;5155939;27;20092;-75
2022/08/19 11:23:45;;;;;;;22.33;17.20;;;;;;;26.00;51.26;101350.50;5155187;27;20043;-74
2022/08/19 11:26:15;;;;;;;22.15;16.48;;;;;;;26.14;50.32;101362.00;5155665;27;20488;-74
2022/08/19 11:28:43;;;;;;;29.63;16.45;;;;;;;26.24;49.57;101357.47;5155871;27;20066;-74
2022/08/19 11:31:16;;;;;;;21.85;15.40;;;;;;;26.32;48.71;101346.00;5155442;27;20043;-74
2022/08/19 11:33:45;;;;;;;22.27;16.08;;;;;;;26.26;48.74;101336.59;5156029;27;20067;-74
2022/08/19 11:36:15;;;;;;;20.58;15.45;;;;;;;26.31;49.21;101338.88;5155398;27;20040;-74
2022/08/19 11:38:45;;;;;;;26.67;14.48;;;;;;;26.45;49.59;101332.22;5155370;27;20043;-74
2022/08/19 11:41:12;;;;;;;20.13;14.45;;;;;;;26.46;48.84;101332.06;5155696;27;20105;-74
2022/08/19 11:43:39;;;;;;;21.02;15.57;;;;;;;26.30;49.40;101335.31;5155384;27;20082;-74
2022/08/19 11:46:11;;;;;;;20.13;15.38;;;;;;;26.31;49.86;101331.59;5155285;27;20088;-74
2022/08/19 11:48:39;;;;;;;25.75;14.70;;;;;;;26.26;50.13;101333.88;5155262;27;20039;-74
2022/08/19 11:51:14;;;;;;;18.95;12.88;;;;;;;26.00;49.35;101330.78;5155594;27;20041;-74